Time;durP1;ratioP1;P1;durP2;ratioP2;P2;SDS_P1;SDS_P2;PMS_P1;PMS_P2;Temp;Humidity;BMP_temperature;BMP_pressure;BME280_temperature;BME280_humidity;BME280_pressure;Samples;Min_cycle;Max_cycle;Signal;HPM_P1;HPM_P2
2021/04/06 00:00:23;;;;;;;17.98;10.38;;;;;;;1.93;67.01;98082.91;1808631;79;21838;-77
2021/04/06 00:02:53;;;;;;;22.10;11.22;;;;;;;1.92;67.42;98076.70;1808297;78;20995;-77
2021/04/06 00:05:20;;;;;;;18.12;10.18;;;;;;;1.90;67.37;98082.95;1808688;79;21538;-77
2021/04/06 00:07:49;;;;;;;21.77;10.28;;;;;;;1.88;67.39;98077.03;1779601;79;21118;-77
2021/04/06 00:10:25;;;;;;;20.48;10.70;;;;;;;1.85;67.81;98075.46;1779723;79;20928;-77
2021/04/06 00:12:54;;;;;;;18.00;10.48;;;;;;;1.83;67.69;98078.46;1808445;79;21361;-77
2021/04/06 00:15:23;;;;;;;18.48;9.70;;;;;;;1.79;67.85;98069.32;1808057;79;20940;-78
2021/04/06 00:17:54;;;;;;;22.22;10.50;;;;;;;1.75;68.07;98073.71;1734115;79;20936;-78
2021/04/06 00:20:22;;;;;;;22.07;10.65;;;;;;;1.72;68.21;98072.17;1807962;79;20952;-78
2021/04/06 00:22:49;;;;;;;18.45;10.32;;;;;;;1.68;68.46;98069.25;1754056;79;20920;-78
2021/04/06 00:25:21;;;;;;;22.17;10.10;;;;;;;1.67;68.70;98066.84;1753983;79;21209;-78
2021/04/06 00:27:51;;;;;;;20.72;10.65;;;;;;;1.66;68.64;98070.09;1778926;79;20983;-78
2021/04/06 00:30:32;;;;;;;20.57;10.88;;;;;;;1.64;68.63;98069.03;1808012;79;20975;-78
2021/04/06 00:33:28;;;;;;;24.72;11.35;;;;;;;1.62;68.83;98063.11;1807965;79;21007;-78
2021/04/06 00:35:57;;;;;;;18.95;10.68;;;;;;;1.61;68.87;98062.05;1808145;79;21483;-78
2021/04/06 00:38:35;;;;;;;25.77;14.10;;;;;;;1.60;68.90;98060.45;1808022;79;20940;-78
2021/04/06 00:41:05;;;;;;;27.27;14.40;;;;;;;1.58;69.18;98059.38;1808042;79;21514;-78
2021/04/06 00:43:37;;;;;;;28.00;16.57;;;;;;;1.58;69.29;98060.73;1808044;78;20952;-78
2021/04/06 00:46:11;;;;;;;30.23;17.15;;;;;;;1.58;69.23;98061.28;1807989;79;21047;-78
2021/04/06 00:48:45;;;;;;;33.08;18.60;;;;;;;1.56;69.24;98056.72;1779387;79;21161;-78
2021/04/06 00:51:15;;;;;;;31.00;17.02;;;;;;;1.51;69.38;98058.95;1779528;79;21194;-78
2021/04/06 00:54:05;;;;;;;25.12;15.48;;;;;;;1.48;69.59;98060.88;1808040;79;21102;-77
2021/04/06 00:56:41;;;;;;;28.57;16.87;;;;;;;1.47;69.75;98057.92;1807994;79;20912;-78
2021/04/06 00:59:13;;;;;;;27.52;15.88;;;;;;;1.44;69.91;98054.45;1807984;79;21514;-78
2021/04/06 01:01:45;;;;;;;;;;;;;;;1.43;70.02;98056.90;1811117;79;20984;-78
2021/04/06 01:04:22;;;;;;;22.35;14.28;;;;;;;1.43;70.20;98056.09;1813927;77;21257;-78
2021/04/06 01:07:11;;;;;;;15.43;9.13;;;;;;;1.42;70.17;98059.89;1813645;79;21007;-78
2021/04/06 01:09:55;;;;;;;22.30;11.60;;;;;;;1.40;70.32;98049.92;1813784;79;20999;-78
2021/04/06 01:12:26;;;;;;;23.92;11.22;;;;;;;1.38;70.37;98050.76;1788147;79;21478;-78
2021/04/06 01:14:55;;;;;;;23.47;11.10;;;;;;;1.35;70.37;98045.39;1813735;79;20880;-79
2021/04/06 01:17:29;;;;;;;30.08;14.58;;;;;;;1.32;70.69;98041.37;1813659;79;21437;-78
2021/04/06 01:20:06;;;;;;;27.93;15.93;;;;;;;1.32;71.13;98031.91;1813625;78;21181;-78
2021/04/06 01:22:35;;;;;;;29.42;15.75;;;;;;;1.34;71.03;98034.31;1813662;79;20924;-78
2021/04/06 01:25:05;;;;;;;26.52;16.95;;;;;;;1.35;71.07;98035.12;1787055;79;20928;-78
2021/04/06 01:27:32;;;;;;;27.70;15.90;;;;;;;1.35;71.20;98033.77;1813770;79;21491;-77
2021/04/06 01:30:00;;;;;;;28.73;16.70;;;;;;;1.35;71.18;98032.41;1813648;79;21202;-77
2021/04/06 01:32:28;;;;;;;25.20;14.30;;;;;;;1.33;71.13;98033.51;1786690;79;20940;-77
2021/04/06 01:34:57;;;;;;;21.70;13.65;;;;;;;1.31;71.23;98031.65;1813646;78;21047;-76
2021/04/06 01:37:25;;;;;;;29.52;16.27;;;;;;;1.32;71.24;98033.80;1813590;79;21493;-77
2021/04/06 01:39:55;;;;;;;29.77;15.85;;;;;;;1.33;71.08;98034.06;1813754;79;20881;-78
2021/04/06 01:42:27;;;;;;;29.03;16.03;;;;;;;1.32;71.24;98035.95;1813862;79;20948;-78
2021/04/06 01:44:56;;;;;;;22.67;13.78;;;;;;;1.35;71.12;98042.68;1813610;79;20947;-77
2021/04/06 01:47:25;;;;;;;25.90;16.32;;;;;;;1.33;71.24;98047.03;1813640;78;20951;-77
2021/04/06 01:49:54;;;;;;;24.57;14.58;;;;;;;1.32;71.24;98042.72;1813582;79;20896;-76
2021/04/06 01:52:23;;;;;;;22.82;13.45;;;;;;;1.31;71.19;98046.52;1813439;79;21470;-77
2021/04/06 01:54:58;;;;;;;27.82;15.70;;;;;;;1.31;71.32;98049.22;1813608;78;21259;-77
2021/04/06 01:57:30;;;;;;;35.13;20.57;;;;;;;1.29;71.43;98039.25;1813501;79;20924;-77
2021/04/06 01:59:58;;;;;;;35.60;20.00;;;;;;;1.27;71.43;98042.78;1813058;78;20936;-77
2021/04/06 02:02:27;;;;;;;30.25;18.45;;;;;;;1.24;71.46;98046.07;1813143;79;20892;-76
2021/04/06 02:04:58;;;;;;;30.17;17.52;;;;;;;1.22;71.44;98042.86;1813654;77;20923;-78
2021/04/06 02:07:36;;;;;;;28.55;15.80;;;;;;;1.19;71.49;98040.73;1813807;79;21451;-77
2021/04/06 02:10:03;;;;;;;27.65;16.02;;;;;;;1.15;71.46;98034.33;1813311;79;20971;-76
2021/04/06 02:12:30;;;;;;;27.37;15.88;;;;;;;1.12;71.65;98038.97;1813599;79;20987;-76
2021/04/06 02:14:58;;;;;;;23.73;12.40;;;;;;;1.08;71.85;98036.59;1736641;79;21178;-76
2021/04/06 02:17:26;;;;;;;22.93;11.78;;;;;;;1.08;71.91;98041.99;1813637;79;20877;-77
2021/04/06 02:19:54;;;;;;;22.07;11.90;;;;;;;1.06;72.07;98045.53;1813609;79;21018;-77
2021/04/06 02:22:21;;;;;;;23.22;10.95;;;;;;;1.05;72.00;98043.92;1813525;79;21122;-77
2021/04/06 02:24:53;;;;;;;20.12;10.58;;;;;;;1.03;72.00;98042.61;1813611;79;21576;-76
2021/04/06 02:27:28;;;;;;;23.40;11.35;;;;;;;1.00;72.01;98042.64;1813726;79;21527;-76
2021/04/06 02:29:58;;;;;;;24.92;12.13;;;;;;;0.98;72.13;98044.28;1813737;78;20880;-77
2021/04/06 02:32:30;;;;;;;23.00;11.68;;;;;;;0.96;72.31;98045.11;1813645;79;22194;-76
2021/04/06 02:35:03;;;;;;;26.45;11.30;;;;;;;0.94;72.51;98045.95;1813570;79;21003;-77
2021/04/06 02:37:33;;;;;;;26.82;12.00;;;;;;;0.94;72.50;98038.39;1813980;78;21530;-77
2021/04/06 02:40:07;;;;;;;23.60;12.25;;;;;;;0.91;72.59;98041.13;1813808;78;20920;-76
2021/04/06 02:42:48;;;;;;;26.33;12.50;;;;;;;0.89;72.80;98040.61;1813619;79;20920;-77
2021/04/06 02:45:23;;;;;;;23.15;12.40;;;;;;;0.86;72.82;98036.33;1813630;79;21370;-77
2021/04/06 02:47:54;;;;;;;22.80;13.08;;;;;;;0.85;72.93;98038.23;1813548;79;21578;-77
2021/04/06 02:50:25;;;;;;;25.43;14.23;;;;;;;0.84;72.91;98038.52;1813677;79;21106;-76
2021/04/06 02:52:53;;;;;;;23.50;12.23;;;;;;;0.81;73.06;98035.04;1813574;79;20888;-77
2021/04/06 02:55:22;;;;;;;23.87;13.08;;;;;;;0.80;73.14;98030.19;1813603;79;20975;-77
2021/04/06 02:57:52;;;;;;;21.95;11.53;;;;;;;0.78;73.31;98037.77;1813604;79;21824;-78
2021/04/06 03:00:31;;;;;;;26.82;13.38;;;;;;;0.80;73.39;98041.53;1813560;79;20988;-77
2021/04/06 03:03:07;;;;;;;22.25;12.45;;;;;;;0.81;73.41;98038.55;1810433;77;21114;-76
2021/04/06 03:05:38;;;;;;;25.35;15.48;;;;;;;0.83;73.42;98047.16;1803872;79;21492;-77
2021/04/06 03:08:06;;;;;;;32.08;17.10;;;;;;;0.85;73.42;98044.17;1806364;79;21035;-78
2021/04/06 03:10:35;;;;;;;33.02;17.50;;;;;;;0.87;73.41;98041.45;1806185;79;21200;-78
2021/04/06 03:13:13;;;;;;;29.00;16.65;;;;;;;0.88;73.38;98039.55;1806114;79;20925;-78
2021/04/06 03:15:42;;;;;;;29.05;15.95;;;;;;;0.89;73.40;98037.10;1806181;79;20965;-78
2021/04/06 03:18:11;;;;;;;28.15;16.07;;;;;;;0.90;73.34;98043.56;1806087;79;21023;-78
2021/04/06 03:20:41;;;;;;;24.50;13.13;;;;;;;0.89;73.29;98043.31;1806159;78;21119;-78
2021/04/06 03:23:09;;;;;;;28.07;13.93;;;;;;;0.89;73.20;98040.61;1806206;79;22235;-78
2021/04/06 03:25:37;;;;;;;18.90;12.23;;;;;;;0.91;73.16;98045.17;1806149;79;20941;-77
2021/04/06 03:28:09;;;;;;;24.45;13.00;;;;;;;0.91;73.13;98041.13;1806130;79;21154;-78
2021/04/06 03:30:37;;;;;;;22.70;13.50;;;;;;;0.93;73.09;98032.73;1806335;79;21075;-78
2021/04/06 03:33:10;;;;;;;24.63;14.28;;;;;;;0.92;73.04;98040.03;1806147;78;21192;-77
2021/04/06 03:35:40;;;;;;;23.47;12.70;;;;;;;0.93;73.03;98055.15;1800367;79;21569;-78
2021/04/06 03:38:09;;;;;;;24.57;13.50;;;;;;;0.94;73.14;98055.41;1807781;79;20999;-78
2021/04/06 03:40:38;;;;;;;26.05;12.47;;;;;;;0.94;73.12;98050.55;1807837;79;21039;-78
2021/04/06 03:43:20;;;;;;;24.57;13.13;;;;;;;0.96;73.01;98052.41;1807786;79;21098;-78
2021/04/06 03:46:02;;;;;;;29.45;13.55;;;;;;;1.02;73.00;98058.56;1807883;79;21158;-78
2021/04/06 03:48:32;;;;;;;25.10;13.90;;;;;;;1.05;72.88;98057.98;1808013;79;21333;-77
2021/04/06 03:51:02;;;;;;;33.13;11.65;;;;;;;1.10;72.81;98063.33;1807918;79;21581;-78
2021/04/06 03:53:40;;;;;;;21.10;11.43;;;;;;;1.13;72.62;98056.80;1807982;79;20983;-77
2021/04/06 03:56:11;;;;;;;22.25;10.75;;;;;;;1.15;72.49;98054.60;1807515;79;21019;-77
2021/04/06 03:58:48;;;;;;;20.75;11.22;;;;;;;1.19;72.40;98054.25;1808140;78;21116;-76
2021/04/06 04:01:14;;;;;;;20.90;10.65;;;;;;;1.22;72.29;98057.72;1807901;79;21612;-76
2021/04/06 04:03:42;;;;;;;26.68;12.90;;;;;;;1.27;72.15;98062.26;1810228;77;21482;-76
2021/04/06 04:06:09;;;;;;;31.30;15.00;;;;;;;1.28;72.20;98061.97;1812681;79;20980;-76
2021/04/06 04:08:37;;;;;;;33.88;13.50;;;;;;;1.30;72.17;98064.37;1811937;79;21158;-76
2021/04/06 04:11:04;;;;;;;37.38;17.48;;;;;;;1.30;72.22;98054.37;1811992;79;21079;-78
2021/04/06 04:13:32;;;;;;;20.30;13.10;;;;;;;1.32;72.18;98058.94;1811949;79;21640;-76
2021/04/06 04:16:00;;;;;;;22.98;12.90;;;;;;;1.35;72.20;98055.40;1811876;78;21003;-77
2021/04/06 04:18:29;;;;;;;20.82;10.70;;;;;;;1.37;72.12;98054.56;1811950;79;20999;-77
2021/04/06 04:20:57;;;;;;;22.70;11.83;;;;;;;1.38;72.16;98062.38;1811912;79;20880;-76
2021/04/06 04:23:26;;;;;;;25.55;12.58;;;;;;;1.41;72.11;98058.29;1811954;79;21475;-76
2021/04/06 04:25:53;;;;;;;24.80;13.13;;;;;;;1.42;72.06;98062.05;1811940;79;21184;-76
2021/04/06 04:28:21;;;;;;;21.95;12.00;;;;;;;1.45;72.05;98059.31;1811830;79;21574;-76
2021/04/06 04:30:50;;;;;;;25.85;11.75;;;;;;;1.48;72.02;98064.14;1811805;79;21035;-76
2021/04/06 04:33:17;;;;;;;24.87;12.37;;;;;;;1.51;71.86;98063.55;1812763;79;21177;-78
2021/04/06 04:35:45;;;;;;;24.43;12.25;;;;;;;1.54;71.95;98054.85;1811972;78;21043;-76
2021/04/06 04:38:14;;;;;;;24.35;12.28;;;;;;;1.56;71.71;98052.11;1812029;79;22540;-76
2021/04/06 04:40:43;;;;;;;22.52;12.07;;;;;;;1.59;71.63;98046.66;1811852;79;21514;-75
2021/04/06 04:43:11;;;;;;;27.82;12.33;;;;;;;1.58;71.52;98049.92;1811929;79;20937;-73
2021/04/06 04:45:39;;;;;;;28.30;14.00;;;;;;;1.62;71.61;98052.30;1811923;78;20991;-74
2021/04/06 04:48:07;;;;;;;23.32;12.40;;;;;;;1.66;71.52;98059.27;1811943;79;20932;-75
2021/04/06 04:50:34;;;;;;;25.43;13.05;;;;;;;1.70;71.42;98054.88;1811964;79;21185;-76
2021/04/06 04:53:02;;;;;;;20.95;11.40;;;;;;;1.73;71.43;98057.00;1811860;79;20951;-73
2021/04/06 04:55:31;;;;;;;30.00;13.10;;;;;;;1.77;71.13;98051.78;1811894;79;21169;-77
2021/04/06 04:57:59;;;;;;;26.68;13.22;;;;;;;1.80;71.22;98045.77;1811996;79;21141;-76
2021/04/06 05:00:26;;;;;;;29.40;12.15;;;;;;;1.85;71.03;98050.56;1811939;79;20913;-77
2021/04/06 05:02:53;;;;;;;23.22;12.03;;;;;;;1.89;70.91;98048.06;1810331;77;21655;-74
2021/04/06 05:05:21;;;;;;;28.02;12.50;;;;;;;1.94;70.80;98050.14;1797937;79;21142;-71
2021/04/06 05:07:48;;;;;;;22.82;12.35;;;;;;;1.99;70.73;98052.77;1798038;79;21114;-71
2021/04/06 05:10:17;;;;;;;28.05;12.75;;;;;;;2.06;70.55;98060.50;1798018;79;21144;-74
2021/04/06 05:12:48;;;;;;;25.77;12.58;;;;;;;2.11;70.32;98058.27;1798020;78;21063;-74
2021/04/06 05:15:16;;;;;;;22.62;11.33;;;;;;;2.17;70.47;98059.79;1798086;78;21370;-75
2021/04/06 05:17:44;;;;;;;25.08;11.73;;;;;;;2.24;70.28;98059.66;1798167;79;21074;-74
2021/04/06 05:20:12;;;;;;;21.35;12.50;;;;;;;2.32;70.08;98057.59;1798063;78;21188;-73
2021/04/06 05:22:40;;;;;;;28.55;12.43;;;;;;;2.39;69.74;98061.81;1797825;79;21161;-73
2021/04/06 05:25:08;;;;;;;21.82;11.68;;;;;;;2.45;69.68;98067.39;1797744;78;21150;-83
2021/04/06 05:27:36;;;;;;;24.02;11.22;;;;;;;2.52;69.56;98064.55;1798180;79;21783;-82
2021/04/06 05:30:05;;;;;;;18.00;10.43;;;;;;;2.59;69.12;98063.61;1798431;79;21491;-76
2021/04/06 05:32:33;;;;;;;21.93;11.03;;;;;;;2.69;68.96;98067.23;1799218;79;21062;-76
2021/04/06 05:35:01;;;;;;;21.12;12.00;;;;;;;2.81;68.61;98067.53;1798165;79;21122;-72
2021/04/06 05:37:31;;;;;;;20.77;11.70;;;;;;;2.91;68.17;98058.63;1798297;79;21090;-72
2021/04/06 05:40:00;;;;;;;20.25;10.08;;;;;;;3.00;67.72;98061.44;1798271;79;20983;-73
2021/04/06 05:42:29;;;;;;;19.40;10.40;;;;;;;3.05;67.21;98070.82;1798197;78;21608;-74
2021/04/06 05:44:56;;;;;;;24.35;10.98;;;;;;;3.15;66.98;98076.03;1798275;79;21050;-72
2021/04/06 05:47:29;;;;;;;21.30;10.65;;;;;;;3.30;67.17;98076.27;1798075;78;20916;-75
2021/04/06 05:49:57;;;;;;;21.48;10.18;;;;;;;3.51;66.57;98076.61;1799404;78;21490;-76
2021/04/06 05:52:25;;;;;;;19.25;9.63;;;;;;;3.72;65.81;98079.67;1799965;79;21366;-74
2021/04/06 05:54:52;;;;;;;20.25;9.78;;;;;;;3.92;65.13;98070.50;1799884;79;20974;-76
2021/04/06 05:57:20;;;;;;;24.50;11.10;;;;;;;4.11;64.37;98081.16;1800055;78;21573;-76
2021/04/06 05:59:47;;;;;;;16.73;9.35;;;;;;;4.29;64.37;98078.80;1799985;79;21061;-75
2021/04/06 06:02:15;;;;;;;18.92;9.75;;;;;;;4.51;63.52;98069.83;1799922;79;21026;-74
2021/04/06 06:04:43;;;;;;;18.42;9.55;;;;;;;4.73;61.93;98072.22;1804969;77;21364;-71
2021/04/06 06:07:12;;;;;;;15.08;9.38;;;;;;;4.90;61.28;98075.02;1807276;78;21126;-72
2021/04/06 06:09:40;;;;;;;16.87;9.40;;;;;;;5.00;61.24;98071.22;1808309;78;21030;-74
2021/04/06 06:12:11;;;;;;;16.15;9.80;;;;;;;5.16;60.48;98073.75;1808220;79;21149;-76
2021/04/06 06:14:51;;;;;;;21.10;10.80;;;;;;;5.49;60.37;98068.12;1808255;79;21566;-73
2021/04/06 06:17:24;;;;;;;19.25;9.90;;;;;;;5.49;60.37;98068.12;1822356;78;21364;-72
2021/04/06 06:19:56;;;;;;;22.67;10.35;;;;;;;5.77;57.96;98073.27;1829229;78;21142;-75
2021/04/06 06:22:29;;;;;;;22.22;11.68;;;;;;;5.96;57.76;98065.02;1802229;78;21014;-71
2021/04/06 06:25:07;;;;;;;;;;;;;;;6.17;57.91;98068.46;1832430;78;21059;-69
2021/04/06 06:27:43;;;;;;;29.27;14.20;;;;;;;6.42;57.64;98074.97;1829803;78;20221;-71
2021/04/06 06:30:32;;;;;;;20.17;9.48;;;;;;;6.65;55.96;98072.83;1829811;78;21314;-76
2021/04/06 06:33:26;;;;;;;24.63;12.73;;;;;;;6.94;55.24;98075.02;1829516;78;21158;-73
2021/04/06 06:35:58;;;;;;;19.17;9.33;;;;;;;6.94;55.24;98075.02;1829721;78;20996;-73
2021/04/06 06:38:40;;;;;;;18.75;9.08;;;;;;;7.17;54.10;98075.56;1811437;78;21421;-70
2021/04/06 06:41:17;;;;;;;19.80;9.55;;;;;;;7.34;52.96;98081.50;1794926;80;21124;-70
2021/04/06 06:43:51;;;;;;;19.27;9.08;;;;;;;7.47;52.81;98083.19;1794581;80;21441;-69
2021/04/06 06:46:30;;;;;;;19.55;8.93;;;;;;;7.61;51.52;98089.74;1806689;78;21550;-71
2021/04/06 06:49:06;;;;;;;20.25;10.28;;;;;;;7.71;52.09;98083.89;1825327;78;22292;-70
2021/04/06 06:51:36;;;;;;;17.75;10.18;;;;;;;7.83;51.93;98092.16;1829211;77;20921;-77
2021/04/06 06:54:05;;;;;;;17.40;8.73;;;;;;;7.95;51.53;98090.06;1829216;77;21131;-68
2021/04/06 06:56:41;;;;;;;15.55;9.38;;;;;;;8.08;51.50;98086.27;1828113;78;21403;-70
2021/04/06 06:59:10;;;;;;;17.60;9.55;;;;;;;8.16;51.39;98088.66;1828810;78;21163;-69
2021/04/06 07:01:38;;;;;;;18.95;9.53;;;;;;;8.25;50.95;98090.75;1829259;77;21158;-69
2021/04/06 07:04:12;;;;;;;23.15;10.32;;;;;;;8.31;49.79;98088.61;1830060;77;20910;-69
2021/04/06 07:06:45;;;;;;;18.32;10.05;;;;;;;8.41;49.29;98086.30;1832161;78;21091;-69
2021/04/06 07:09:27;;;;;;;17.32;10.58;;;;;;;8.50;48.58;98084.27;1832505;78;21289;-69
2021/04/06 07:12:03;;;;;;;17.23;9.53;;;;;;;8.60;48.05;98081.11;1832173;78;20957;-70
2021/04/06 07:14:32;;;;;;;16.67;8.63;;;;;;;8.68;47.33;98083.50;1832227;78;20973;-69
2021/04/06 07:17:07;;;;;;;29.92;10.88;;;;;;;8.75;47.00;98074.73;1844235;77;21128;-69
2021/04/06 07:19:39;;;;;;;20.92;9.18;;;;;;;8.76;47.60;98083.97;1846574;77;21034;-69
2021/04/06 07:22:06;;;;;;;;;;;;;;;8.82;47.69;98083.19;1848616;77;22281;-68
2021/04/06 07:24:37;;;;;;;13.58;7.78;;;;;;;8.92;47.06;98075.34;1846468;77;20130;-70
2021/04/06 07:27:12;;;;;;;14.87;8.95;;;;;;;9.04;46.57;98075.92;1846428;77;21033;-69
2021/04/06 07:29:41;;;;;;;18.92;8.75;;;;;;;9.15;46.29;98081.17;1846655;77;21096;-70
2021/04/06 07:32:10;;;;;;;15.88;8.55;;;;;;;9.31;45.28;98080.47;1846740;77;20989;-71
2021/04/06 07:34:41;;;;;;;15.38;8.45;;;;;;;9.47;45.02;98086.28;1846469;77;22095;-69
2021/04/06 07:37:09;;;;;;;14.53;7.47;;;;;;;9.63;44.73;98086.38;1846828;77;21177;-70
2021/04/06 07:39:37;;;;;;;15.10;8.65;;;;;;;9.83;43.89;98081.87;1846546;77;21053;-68
2021/04/06 07:42:09;;;;;;;15.72;7.90;;;;;;;10.01;43.97;98085.94;1846164;77;21124;-69
2021/04/06 07:44:37;;;;;;;16.80;8.48;;;;;;;10.20;42.59;98075.17;1846760;77;21033;-70
2021/04/06 07:47:05;;;;;;;14.93;8.53;;;;;;;10.42;41.71;98082.02;1846471;77;21354;-70
2021/04/06 07:49:37;;;;;;;17.75;8.05;;;;;;;10.57;41.59;98086.75;1846053;77;20986;-76
2021/04/06 07:52:17;;;;;;;;;;;;;;;10.72;41.56;98084.39;1823502;77;21470;-73
2021/04/06 07:54:48;;;;;;;15.15;8.63;;;;;;;10.92;41.48;98080.61;1786091;79;20260;-74
2021/04/06 07:57:16;;;;;;;15.65;8.05;;;;;;;11.15;40.65;98085.69;1812452;79;21578;-74
2021/04/06 07:59:49;;;;;;;26.70;10.55;;;;;;;11.38;39.92;98089.19;1811676;79;21180;-75
2021/04/06 08:02:24;;;;;;;15.18;7.50;;;;;;;11.61;40.00;98090.09;1784382;79;21149;-77
2021/04/06 08:04:57;;;;;;;14.87;8.03;;;;;;;11.94;38.38;98084.20;1810989;79;21122;-72
2021/04/06 08:07:34;;;;;;;12.18;7.25;;;;;;;12.35;37.79;98082.67;1786023;79;20949;-71
2021/04/06 08:10:13;;;;;;;17.15;8.68;;;;;;;12.77;36.06;98077.75;1811434;79;21546;-72
2021/04/06 08:12:41;;;;;;;12.68;8.15;;;;;;;13.03;36.42;98079.21;1786826;79;21796;-70
2021/04/06 08:15:12;;;;;;;16.90;7.87;;;;;;;13.28;34.62;98070.61;1762193;77;21166;-70
2021/04/06 08:17:53;;;;;;;16.30;9.13;;;;;;;13.41;35.17;98070.01;1846399;77;20977;-69
2021/04/06 08:20:32;;;;;;;14.20;8.38;;;;;;;13.68;34.52;98071.40;1846452;77;20966;-69
2021/04/06 08:23:43;;;;;;;10.63;6.58;;;;;;;13.74;33.84;98073.47;1846263;77;20990;-68
2021/04/06 08:26:35;;;;;;;14.05;6.50;;;;;;;13.87;33.93;98077.56;1846373;77;22177;-69
2021/04/06 08:29:27;;;;;;;13.53;7.73;;;;;;;14.07;33.51;98078.81;1846857;77;21060;-68
2021/04/06 08:32:14;;;;;;;17.80;9.13;;;;;;;14.24;33.88;98076.08;1812675;77;21055;-69
2021/04/06 08:34:51;;;;;;;11.25;7.25;;;;;;;14.51;33.09;98070.69;1810649;79;21137;-68
2021/04/06 08:37:34;;;;;;;11.12;7.17;;;;;;;14.73;31.72;98066.20;1811208;78;21190;-69
2021/04/06 08:40:08;;;;;;;12.47;7.53;;;;;;;14.84;32.04;98074.81;1732116;82;22097;-68
2021/04/06 08:42:36;;;;;;;12.18;6.95;;;;;;;15.01;32.10;98060.96;1754009;81;21496;-68
2021/04/06 08:45:05;;;;;;;12.63;6.70;;;;;;;15.04;31.50;98054.64;1754218;80;21178;-69
2021/04/06 08:47:45;;;;;;;11.15;7.25;;;;;;;14.95;30.98;98058.92;1754258;80;21064;-68
2021/04/06 08:50:35;;;;;;;15.43;8.75;;;;;;;14.75;31.70;98059.71;1754404;81;21143;-69
2021/04/06 08:53:05;;;;;;;13.53;5.58;;;;;;;14.83;32.03;98053.09;1754434;81;21555;-68
2021/04/06 08:55:33;;;;;;;12.80;7.47;;;;;;;15.07;31.30;98063.55;1754291;81;20946;-68
2021/04/06 08:58:01;;;;;;;13.50;8.75;;;;;;;15.25;31.14;98055.42;1749459;81;21185;-69
2021/04/06 09:00:30;;;;;;;12.85;7.75;;;;;;;15.40;30.71;98056.33;1752608;81;21607;-68
2021/04/06 09:03:04;;;;;;;25.10;11.53;;;;;;;15.39;30.15;98056.92;1725618;81;21134;-69
2021/04/06 09:05:33;;;;;;;14.63;6.03;;;;;;;15.40;29.74;98050.20;1750845;80;21403;-68
2021/04/06 09:08:01;;;;;;;11.03;5.60;;;;;;;15.29;30.35;98049.92;1741518;82;21180;-70
2021/04/06 09:10:37;;;;;;;12.07;6.12;;;;;;;15.34;30.13;98053.71;1735755;82;21671;-72
2021/04/06 09:13:05;;;;;;;15.30;9.38;;;;;;;15.44;30.03;98058.53;1740464;82;21186;-70
2021/04/06 09:15:34;;;;;;;11.65;6.95;;;;;;;15.47;29.99;98053.61;1746703;80;21203;-72
2021/04/06 09:18:02;;;;;;;9.93;6.30;;;;;;;15.54;29.36;98056.44;1740593;82;21366;-71
2021/04/06 09:20:30;;;;;;;16.12;6.40;;;;;;;15.61;28.82;98054.31;1738691;82;21614;-73
2021/04/06 09:22:58;;;;;;;11.45;7.55;;;;;;;15.50;28.86;98047.31;1740517;82;21570;-72
2021/04/06 09:25:30;;;;;;;10.70;7.67;;;;;;;15.35;29.60;98051.95;1742812;80;21179;-73
2021/04/06 09:28:04;;;;;;;13.72;7.10;;;;;;;15.27;29.26;98045.36;1742186;82;21166;-73
2021/04/06 09:30:43;;;;;;;8.83;5.58;;;;;;;15.09;29.58;98051.53;1737988;82;22347;-70
2021/04/06 09:33:10;;;;;;;12.03;7.05;;;;;;;15.00;29.39;98042.00;1742450;80;21658;-72
2021/04/06 09:35:38;;;;;;;9.17;6.10;;;;;;;15.01;29.00;98041.62;1736090;82;21135;-72
2021/04/06 09:38:07;;;;;;;20.20;7.72;;;;;;;15.03;29.83;98040.62;1740970;82;21704;-71
2021/04/06 09:40:41;;;;;;;10.23;5.40;;;;;;;15.11;29.52;98039.50;1741783;80;21175;-72
2021/04/06 09:43:09;;;;;;;11.28;6.70;;;;;;;15.17;29.94;98042.72;1741874;80;21372;-70
2021/04/06 09:45:36;;;;;;;11.20;5.05;;;;;;;15.19;29.28;98037.01;1743992;80;21633;-70
2021/04/06 09:48:05;;;;;;;12.05;6.47;;;;;;;15.14;29.60;98040.72;1747568;82;21564;-72
2021/04/06 09:50:33;;;;;;;9.23;4.92;;;;;;;15.19;29.06;98035.63;1710659;83;21064;-69
2021/04/06 09:53:01;;;;;;;9.73;5.37;;;;;;;15.19;29.19;98032.86;1739800;82;21174;-70
2021/04/06 09:55:30;;;;;;;9.03;5.17;;;;;;;15.22;29.74;98034.06;1725501;82;22685;-70
2021/04/06 09:58:02;;;;;;;8.25;5.72;;;;;;;15.40;29.96;98021.17;1725872;82;21162;-71
2021/04/06 10:00:35;;;;;;;8.58;5.67;;;;;;;15.68;28.80;98018.39;1721045;80;21190;-72
2021/04/06 10:03:14;;;;;;;28.62;12.55;;;;;;;15.69;28.41;98016.63;1732446;82;21161;-71
2021/04/06 10:05:44;;;;;;;14.18;7.03;;;;;;;15.24;29.17;98018.48;1740684;80;21176;-74
2021/04/06 10:08:12;;;;;;;9.38;6.25;;;;;;;14.95;29.97;98022.42;1721201;82;22847;-69
2021/04/06 10:10:48;;;;;;;7.20;4.70;;;;;;;15.01;29.12;98013.98;1736960;82;21077;-70
2021/04/06 10:13:16;;;;;;;10.80;5.55;;;;;;;15.05;28.63;98008.45;1733231;82;21730;-73
2021/04/06 10:15:43;;;;;;;8.38;5.33;;;;;;;15.03;29.08;98017.72;1724252;81;21162;-71
2021/04/06 10:18:15;;;;;;;8.58;5.25;;;;;;;15.14;28.93;98019.98;1737307;80;21479;-71
2021/04/06 10:20:49;;;;;;;8.08;5.15;;;;;;;15.19;29.11;98012.72;1714028;80;22179;-73
2021/04/06 10:26:23;;;;;;;8.08;5.17;;;;;;;14.77;29.96;98013.97;1717950;83;21055;-72
2021/04/06 10:29:05;;;;;;;8.45;5.03;;;;;;;14.52;29.90;98023.96;1681956;83;21081;-74
2021/04/06 10:31:50;;;;;;;12.40;5.37;;;;;;;14.27;29.92;98015.98;1699380;82;21119;-70
2021/04/06 10:34:20;;;;;;;17.17;7.78;;;;;;;14.00;30.63;98019.41;1711841;83;21392;-67
2021/04/06 10:37:05;;;;;;;14.87;7.70;;;;;;;14.18;31.75;98017.66;1706816;83;21224;-66
2021/04/06 10:39:41;;;;;;;10.98;6.87;;;;;;;14.56;30.57;98012.95;1707473;82;21122;-67
2021/04/06 10:42:14;;;;;;;21.50;11.10;;;;;;;14.82;29.49;98023.28;1706921;83;22176;-68
2021/04/06 10:44:44;;;;;;;12.47;4.95;;;;;;;14.68;29.74;98015.45;1700590;83;21190;-67
2021/04/06 10:47:28;;;;;;;9.55;5.70;;;;;;;14.32;29.85;98012.30;1710498;83;22253;-66
2021/04/06 10:49:57;;;;;;;10.90;5.33;;;;;;;13.94;30.71;98022.28;1708571;82;21227;-69
2021/04/06 10:52:30;;;;;;;13.50;5.83;;;;;;;13.75;31.44;98021.86;1715299;82;21256;-69
2021/04/06 10:54:59;;;;;;;6.62;4.17;;;;;;;13.67;30.59;98011.31;1702743;83;21199;-71
2021/04/06 10:57:35;;;;;;;14.15;8.98;;;;;;;13.60;31.24;98018.11;1692266;83;21195;-68
2021/04/06 11:00:25;;;;;;;10.95;7.30;;;;;;;13.52;31.30;98012.28;1709554;83;21219;-67
2021/04/06 11:03:19;;;;;;;7.75;4.85;;;;;;;13.32;31.03;98016.30;1705639;83;21628;-69
2021/04/06 11:05:46;;;;;;;18.73;7.65;;;;;;;13.17;31.80;98011.98;1602025;87;21276;-68
2021/04/06 11:08:25;;;;;;;18.50;9.13;;;;;;;13.13;31.64;98009.72;1692758;82;21626;-69
2021/04/06 11:10:55;;;;;;;11.35;6.90;;;;;;;13.15;32.48;98008.77;1711974;83;21156;-68
2021/04/06 11:13:23;;;;;;;13.83;6.28;;;;;;;13.20;32.33;98002.19;1710055;82;22262;-67
2021/04/06 11:15:52;;;;;;;12.43;8.20;;;;;;;13.13;32.74;98000.66;1732305;82;21132;-68
2021/04/06 11:18:21;;;;;;;14.83;8.05;;;;;;;13.09;32.60;97999.23;1715308;83;21065;-69
2021/04/06 11:20:49;;;;;;;26.45;16.07;;;;;;;13.06;32.58;98000.55;1707677;83;21196;-67
2021/04/06 11:23:18;;;;;;;13.08;7.83;;;;;;;13.08;32.84;97999.02;1703652;83;21256;-69
2021/04/06 11:25:47;;;;;;;11.93;6.65;;;;;;;13.17;32.47;97992.70;1710966;83;21583;-66
2021/04/06 11:28:14;;;;;;;9.15;5.53;;;;;;;13.25;33.44;97991.42;1705448;84;21192;-73
2021/04/06 11:30:42;;;;;;;7.80;5.20;;;;;;;13.36;32.61;97990.98;1705846;84;21066;-74
2021/04/06 11:33:09;;;;;;;156.57;77.08;;;;;;;13.50;32.75;97989.80;1706212;84;21140;-74
2021/04/06 11:35:37;;;;;;;47.90;22.17;;;;;;;13.69;33.58;97976.47;1706436;84;21160;-75
2021/04/06 11:38:04;;;;;;;16.42;8.75;;;;;;;13.87;32.74;97978.84;1709661;81;21269;-76
2021/04/06 11:40:32;;;;;;;19.52;6.42;;;;;;;13.94;32.11;97983.08;1724582;82;21202;-76
2021/04/06 11:42:59;;;;;;;15.35;8.10;;;;;;;13.91;31.88;97974.75;1725442;83;21139;-73
2021/04/06 11:45:27;;;;;;;30.57;7.15;;;;;;;13.82;31.64;97970.35;1725286;83;21654;-76
2021/04/06 11:47:55;;;;;;;10.20;6.10;;;;;;;13.74;31.34;97976.94;1725381;83;21072;-79
2021/04/06 11:50:23;;;;;;;9.88;5.35;;;;;;;13.66;32.13;97971.13;1676024;83;21115;-77